Time;durP1;ratioP1;P1;durP2;ratioP2;P2;SDS_P1;SDS_P2;PMS_P1;PMS_P2;Temp;Humidity;BMP_temperature;BMP_pressure;BME280_temperature;BME280_humidity;BME280_pressure;Samples;Min_cycle;Max_cycle;Signal;HPM_P1;HPM_P2
2023/07/05 00:00:47;;;;;;;13.63;9.40;;;22.90;99.90;;;23.39;66.59;94898.59;4963019;28;20488;-67
2023/07/05 00:03:16;;;;;;;12.03;9.07;;;22.80;99.90;;;23.37;66.53;94898.81;4959985;28;21038;-63
2023/07/05 00:05:43;;;;;;;9.83;8.67;;;22.80;99.90;;;23.38;67.13;94900.47;4962173;28;20501;-63
2023/07/05 00:08:11;;;;;;;14.90;9.17;;;22.80;99.90;;;23.41;67.76;94912.63;4959312;28;20460;-67
2023/07/05 00:10:38;;;;;;;16.30;10.00;;;22.80;99.90;;;23.43;68.28;94913.22;4962973;28;20471;-64
2023/07/05 00:13:05;;;;;;;13.67;8.87;;;22.90;99.90;;;23.44;67.86;94914.88;4958650;28;20464;-67
2023/07/05 00:15:33;;;;;;;12.40;9.63;;;22.90;99.90;;;23.46;67.69;94910.13;4962019;28;20479;-67
2023/07/05 00:18:00;;;;;;;16.80;9.40;;;22.90;99.90;;;23.44;67.88;94915.69;4958931;28;20538;-67
2023/07/05 00:20:29;;;;;;;11.20;10.10;;;22.90;99.90;;;23.44;68.38;94917.56;4967171;28;20536;-62
2023/07/05 00:22:56;;;;;;;13.57;10.73;;;22.90;99.90;;;23.39;67.86;94912.84;4964389;28;20470;-63
2023/07/05 00:25:25;;;;;;;16.90;10.30;;;22.80;99.90;;;23.33;68.04;94915.56;4966545;28;21046;-66
2023/07/05 00:27:52;;;;;;;12.33;10.17;;;22.80;99.90;;;23.25;67.99;94922.88;4963933;28;20459;-63
2023/07/05 00:30:20;;;;;;;11.90;9.97;;;22.70;99.90;;;23.20;67.85;94922.69;4959190;28;20471;-67
2023/07/05 00:32:47;;;;;;;16.47;9.90;;;22.60;99.90;;;23.18;68.69;94915.91;4963159;28;20459;-65
2023/07/05 00:35:14;;;;;;;11.07;9.80;;;22.60;99.90;;;23.13;69.07;94927.28;4964223;28;20478;-66
2023/07/05 00:37:43;;;;;;;10.57;9.20;;;22.60;99.90;;;23.11;69.01;94923.97;4962927;28;20447;-64
2023/07/05 00:40:11;;;;;;;17.93;9.43;;;22.60;99.90;;;23.11;68.91;94936.59;4963695;28;20482;-66
2023/07/05 00:42:39;;;;;;;9.30;8.40;;;22.60;99.90;;;23.12;69.69;94930.19;4963197;28;20492;-67
2023/07/05 00:45:53;;;;;;;13.27;10.13;;;22.60;99.90;;;23.10;70.60;94933.09;4965056;28;20495;-63
2023/07/05 00:48:24;;;;;;;13.10;10.10;;;22.50;99.90;;;23.09;69.48;94932.25;4965767;28;20499;-63
2023/07/05 00:50:55;;;;;;;10.50;9.50;;;22.50;99.90;;;23.11;69.82;94932.03;4963131;28;20471;-64
2023/07/05 00:53:24;;;;;;;10.67;9.00;;;22.50;99.90;;;23.12;70.08;94933.69;4962946;28;20455;-62
2023/07/05 00:55:54;;;;;;;11.10;8.80;;;22.60;99.90;;;23.10;69.92;94930.41;4959287;28;20501;-63
2023/07/05 00:58:22;;;;;;;11.47;9.40;;;22.60;99.90;;;23.09;70.39;94923.38;4964843;28;20963;-62
2023/07/05 01:00:49;;;;;;;10.40;8.70;;;22.50;99.90;;;23.09;69.72;94923.38;4962483;28;20484;-63
2023/07/05 01:03:20;;;;;;;11.83;8.93;;;22.50;99.90;;;23.08;69.83;94905.59;4959049;28;20560;-64
2023/07/05 01:05:50;;;;;;;10.70;8.77;;;22.50;99.90;;;23.10;69.63;94914.31;4961770;28;20515;-63
2023/07/05 01:08:17;;;;;;;16.13;9.47;;;22.50;99.90;;;23.11;70.13;94907.88;4958992;28;20491;-63
2023/07/05 01:10:53;;;;;;;10.67;8.40;;;22.50;99.90;;;23.12;70.39;94906.03;4962737;28;20478;-62
2023/07/05 01:13:24;;;;;;;10.90;9.80;;;22.60;99.90;;;23.12;70.37;94903.34;4958144;28;20439;-64
2023/07/05 01:15:57;;;;;;;11.90;9.63;;;22.50;99.90;;;23.12;69.71;94901.50;4960544;28;20478;-64
2023/07/05 01:18:30;;;;;;;12.10;9.00;;;22.50;99.90;;;23.11;69.99;94899.03;4961351;28;20456;-66
2023/07/05 01:21:01;;;;;;;10.93;9.83;;;22.50;99.90;;;23.08;69.91;94894.88;4964387;28;20468;-67
2023/07/05 01:24:11;;;;;;;12.93;8.90;;;22.50;99.90;;;23.08;71.12;94900.25;4964627;28;20934;-63
2023/07/05 01:27:23;;;;;;;11.63;9.10;;;22.50;99.90;;;23.08;70.43;94902.91;4933121;28;20463;-67
2023/07/05 01:30:49;;;;;;;16.73;9.43;;;22.50;99.90;;;23.08;70.88;94890.38;4907883;28;20485;-63
2023/07/05 01:33:18;;;;;;;14.60;10.00;;;22.50;99.90;;;23.06;70.06;94891.59;4909199;28;20469;-63
2023/07/05 01:35:49;;;;;;;13.30;10.20;;;22.50;99.90;;;23.04;70.41;94882.94;4910706;28;20545;-64
2023/07/05 01:38:16;;;;;;;13.90;9.67;;;22.50;99.90;;;22.98;69.87;94886.50;4939372;28;20451;-62
2023/07/05 01:41:00;;;;;;;9.87;8.90;;;22.50;99.90;;;22.96;71.16;94880.50;4978741;28;20475;-67
2023/07/05 01:43:27;;;;;;;10.87;9.77;;;22.40;99.90;;;22.94;70.47;94894.13;4957556;28;20464;-67
2023/07/05 01:46:13;;;;;;;12.20;9.53;;;22.40;99.90;;;22.96;70.97;94885.88;4981843;28;20501;-66
2023/07/05 01:48:49;;;;;;;10.77;9.77;;;22.40;99.90;;;22.96;70.92;94885.88;4968305;28;20476;-66
2023/07/05 01:51:20;;;;;;;13.47;9.60;;;22.40;99.90;;;22.97;70.85;94882.16;4982006;28;20462;-67
2023/07/05 01:53:53;;;;;;;11.17;9.80;;;22.40;99.90;;;22.97;71.56;94876.81;4965974;28;20464;-63
2023/07/05 01:56:22;;;;;;;11.80;9.70;;;22.40;99.90;;;22.98;70.79;94875.78;4962518;28;20470;-63
2023/07/05 01:58:52;;;;;;;12.17;9.93;;;22.40;99.90;;;22.98;71.62;94878.44;4978761;28;20540;-63
2023/07/05 02:01:19;;;;;;;13.87;9.73;;;22.40;99.90;;;22.99;70.75;94874.72;4983560;28;20462;-63
2023/07/05 02:03:49;;;;;;;13.60;9.60;;;22.40;99.90;;;22.99;70.52;94874.72;4957949;28;20465;-66
2023/07/05 02:06:17;;;;;;;11.50;10.33;;;22.40;99.90;;;22.99;70.86;94874.72;4961260;28;20511;-67
2023/07/05 02:08:46;;;;;;;25.73;10.20;;;22.40;99.90;;;22.97;71.05;94874.94;4962448;28;20451;-67
2023/07/05 02:11:13;;;;;;;11.27;10.07;;;22.40;99.90;;;22.97;70.29;94868.75;4966691;28;20448;-63
2023/07/05 02:13:40;;;;;;;17.87;9.97;;;22.40;99.90;;;22.96;70.76;94865.25;4977693;28;20472;-63
2023/07/05 02:16:08;;;;;;;16.63;11.73;;;22.40;99.90;;;22.95;70.37;94873.53;4960329;28;20479;-62
2023/07/05 02:18:35;;;;;;;17.17;10.30;;;22.40;99.90;;;22.92;70.22;94864.84;4964196;28;20552;-62
2023/07/05 02:21:09;;;;;;;10.73;9.73;;;22.40;99.90;;;22.92;70.37;94864.03;4960274;28;20525;-63
2023/07/05 02:23:36;;;;;;;14.10;9.10;;;22.40;99.90;;;22.89;70.36;94865.28;4960686;28;20455;-67
2023/07/05 02:26:05;;;;;;;10.63;9.43;;;22.30;99.90;;;22.87;70.28;94862.00;4962489;28;20506;-68
2023/07/05 02:28:32;;;;;;;12.47;10.10;;;22.30;99.90;;;22.84;70.70;94873.16;4962766;28;20525;-66
2023/07/05 02:31:04;;;;;;;12.40;10.20;;;22.30;99.90;;;22.80;70.21;94868.44;4960253;28;20467;-63
2023/07/05 02:33:32;;;;;;;11.40;10.20;;;22.30;99.90;;;22.78;70.39;94868.66;4957897;28;20762;-67
2023/07/05 02:35:59;;;;;;;11.83;9.57;;;22.30;99.90;;;22.75;70.79;94869.09;4963426;28;20487;-62
2023/07/05 02:38:28;;;;;;;18.73;10.43;;;22.20;99.90;;;22.73;70.46;94876.53;4993699;28;20879;-67
2023/07/05 02:40:55;;;;;;;13.80;9.77;;;22.20;99.90;;;22.72;70.33;94874.88;4958350;28;20490;-66
2023/07/05 02:43:22;;;;;;;11.13;9.47;;;22.20;99.90;;;22.70;70.85;94872.44;4994667;28;20850;-67
2023/07/05 02:45:50;;;;;;;9.77;8.70;;;22.20;99.90;;;22.69;71.03;94870.78;4965491;28;20552;-62
2023/07/05 02:48:17;;;;;;;13.00;10.60;;;22.20;99.90;;;22.67;70.38;94867.50;4961420;28;20467;-67
2023/07/05 02:50:45;;;;;;;11.77;9.60;;;22.20;99.90;;;22.65;71.15;94863.38;4986947;28;20995;-66
2023/07/05 02:53:12;;;;;;;14.03;9.77;;;22.10;99.90;;;22.63;70.69;94860.91;4986100;28;20469;-65
2023/07/05 02:55:41;;;;;;;19.13;10.27;;;22.10;99.90;;;22.62;70.89;94858.44;4974856;28;20491;-65
2023/07/05 02:58:08;;;;;;;11.50;10.30;;;22.10;99.90;;;22.60;70.89;94858.66;4985768;28;21428;-67
2023/07/05 03:00:36;;;;;;;11.90;9.53;;;22.10;99.90;;;22.60;71.05;94857.84;4970550;28;20479;-63
2023/07/05 03:03:04;;;;;;;13.00;9.73;;;22.10;99.90;;;22.59;71.18;94861.56;4995247;28;20463;-62
2023/07/05 03:05:31;;;;;;;18.03;10.43;;;22.00;99.90;;;22.59;70.81;94858.88;4970419;28;20499;-62
2023/07/05 03:07:58;;;;;;;12.70;9.73;;;22.00;99.90;;;22.58;71.34;94859.94;4996533;28;20543;-63
2023/07/05 03:10:26;;;;;;;10.23;9.13;;;22.10;99.90;;;22.57;70.67;94856.41;4975517;28;20867;-64
2023/07/05 03:12:55;;;;;;;12.63;9.70;;;22.00;99.90;;;22.55;71.13;94843.22;4970899;28;20464;-64
2023/07/05 03:15:22;;;;;;;12.13;10.93;;;22.00;99.90;;;22.55;70.97;94845.91;4968917;28;20494;-63
2023/07/05 03:17:49;;;;;;;16.50;10.73;;;22.00;99.90;;;22.53;71.11;94834.56;4984267;28;20459;-65
2023/07/05 03:20:17;;;;;;;12.70;10.47;;;22.00;99.90;;;22.56;71.16;94833.34;4963102;28;20472;-65
2023/07/05 03:22:44;;;;;;;14.33;9.00;;;22.10;99.90;;;22.59;71.49;94850.81;4964592;28;20463;-63
2023/07/05 03:25:11;;;;;;;13.37;10.00;;;22.00;99.90;;;22.62;71.04;94853.91;4963644;28;20494;-62
2023/07/05 03:27:38;;;;;;;15.43;11.40;;;22.10;99.90;;;22.66;70.96;94854.31;4962812;28;20539;-62
2023/07/05 03:30:09;;;;;;;15.10;10.50;;;22.10;99.90;;;22.71;71.48;94857.16;4962529;28;20484;-62
2023/07/05 03:32:38;;;;;;;21.50;10.43;;;22.20;99.90;;;22.74;70.77;94852.19;4975781;28;20470;-63
2023/07/05 03:35:06;;;;;;;25.53;11.40;;;22.20;99.90;;;22.77;71.38;94844.75;4966216;28;20483;-63
2023/07/05 03:37:33;;;;;;;20.53;12.87;;;22.20;99.90;;;22.82;71.40;94850.28;4972976;28;20455;-63
2023/07/05 03:40:00;;;;;;;14.97;11.67;;;22.20;99.90;;;22.87;70.93;94853.97;4969108;28;20487;-63
2023/07/05 03:42:28;;;;;;;30.63;11.40;;;22.30;99.90;;;22.92;71.28;94859.47;4958891;28;20455;-63
2023/07/05 03:44:55;;;;;;;15.60;10.77;;;22.40;99.90;;;22.99;70.30;94863.97;4966740;28;20879;-63
2023/07/05 03:47:24;;;;;;;23.30;11.40;;;22.40;99.90;;;23.03;70.16;94871.38;4977394;28;20556;-63
2023/07/05 03:49:51;;;;;;;17.73;11.10;;;22.50;99.90;;;23.08;70.45;94884.13;4975980;28;20501;-63
2023/07/05 03:52:19;;;;;;;11.83;9.83;;;22.50;99.90;;;23.12;70.17;94885.38;4958326;28;20541;-65
2023/07/05 03:54:46;;;;;;;13.07;10.37;;;22.60;99.90;;;23.19;69.01;94879.97;4962509;28;20845;-67
2023/07/05 03:57:14;;;;;;;22.63;10.40;;;22.60;99.90;;;23.21;69.54;94872.53;4980197;28;20463;-65
2023/07/05 03:59:41;;;;;;;15.53;9.43;;;22.70;99.90;;;23.19;68.77;94864.72;5010824;28;20524;-62
2023/07/05 04:02:08;;;;;;;13.27;10.30;;;22.70;99.90;;;23.17;68.53;94861.41;4965221;28;20447;-64
2023/07/05 04:04:37;;;;;;;17.93;10.00;;;22.60;99.90;;;23.15;68.66;94855.44;4966332;28;20507;-66
2023/07/05 04:07:05;;;;;;;23.90;9.60;;;22.60;99.90;;;23.14;69.16;94861.84;4978846;28;21117;-61
2023/07/05 04:09:32;;;;;;;33.43;13.93;;;22.60;99.90;;;23.13;69.55;94862.91;4988479;28;20572;-64
2023/07/05 04:12:00;;;;;;;15.00;10.63;;;22.60;99.90;;;23.14;68.97;94864.53;4975981;28;20487;-65
2023/07/05 04:14:27;;;;;;;16.83;10.83;;;22.60;99.90;;;23.18;69.00;94872.97;4977363;28;20472;-64
2023/07/05 04:16:55;;;;;;;14.33;11.20;;;22.60;99.90;;;23.18;68.73;94870.28;4966066;28;20821;-63
2023/07/05 04:19:22;;;;;;;16.13;11.17;;;22.70;99.90;;;23.20;69.47;94876.25;4978328;28;20855;-64
2023/07/05 04:21:51;;;;;;;14.50;12.47;;;22.60;99.90;;;23.21;69.31;94876.03;4973619;28;20459;-64
2023/07/05 04:24:18;;;;;;;28.17;13.10;;;22.70;99.90;;;23.22;69.27;94880.38;4968691;28;20472;-65
2023/07/05 04:26:46;;;;;;;17.60;11.40;;;22.70;99.90;;;23.23;68.58;94882.00;4985675;28;21022;-65
2023/07/05 04:29:13;;;;;;;17.97;11.67;;;22.70;99.90;;;23.25;69.47;94879.09;5020699;28;20483;-61
2023/07/05 04:31:40;;;;;;;22.93;11.57;;;22.70;99.90;;;23.25;68.56;94885.31;4995899;28;20466;-63
2023/07/05 04:34:07;;;;;;;19.40;12.03;;;22.70;99.90;;;23.26;69.33;94884.25;4961114;28;20487;-62
2023/07/05 04:36:35;;;;;;;14.43;10.93;;;22.70;99.90;;;23.27;69.40;94883.22;4967492;28;20839;-62
2023/07/05 04:39:04;;;;;;;19.73;12.60;;;22.70;99.90;;;23.29;68.61;94893.72;4965927;28;20974;-68
2023/07/05 04:41:31;;;;;;;15.23;11.40;;;22.70;99.90;;;23.31;68.66;94890.81;4962715;28;20463;-69
2023/07/05 04:43:58;;;;;;;26.27;14.30;;;22.80;99.90;;;23.34;69.59;94887.72;4965552;28;20447;-67
2023/07/05 04:46:25;;;;;;;14.30;12.70;;;22.80;99.90;;;23.36;68.94;94893.66;4990705;28;20548;-66
2023/07/05 04:48:53;;;;;;;17.73;12.77;;;22.80;99.90;;;23.40;68.82;94893.00;4972739;28;20451;-65
2023/07/05 04:51:20;;;;;;;13.10;11.27;;;22.90;99.90;;;23.42;69.70;94896.31;4971210;28;20466;-68
2023/07/05 04:53:48;;;;;;;18.20;11.83;;;22.90;99.90;;;23.41;69.75;94888.47;4971081;28;20911;-64
2023/07/05 04:56:17;;;;;;;14.17;11.60;;;22.90;99.90;;;23.43;68.62;94889.06;4968492;28;20455;-64
2023/07/05 04:58:44;;;;;;;13.87;12.47;;;22.90;99.90;;;23.45;68.92;94895.03;4964707;28;21026;-63
2023/07/05 05:01:13;;;;;;;18.50;12.10;;;22.90;99.90;;;;;;4963629;28;20470;-64
2023/07/05 05:03:40;;;;;;;23.00;13.60;;;22.90;99.90;;;23.51;68.99;94898.72;4957538;28;20467;-64
2023/07/05 05:06:07;;;;;;;21.07;13.40;;;23.00;99.90;;;23.53;68.82;94902.84;4965845;28;20581;-63
2023/07/05 05:08:35;;;;;;;18.83;12.47;;;23.00;99.90;;;23.57;68.76;94903.22;4965036;28;20466;-64
2023/07/05 05:11:03;;;;;;;17.33;13.20;;;23.00;99.90;;;23.60;68.51;94908.94;4965578;28;20552;-63
2023/07/05 05:13:34;;;;;;;25.07;13.20;;;23.10;99.90;;;23.63;69.13;94908.50;4964333;28;20460;-65
2023/07/05 05:16:01;;;;;;;21.90;13.37;;;23.10;99.90;;;23.68;69.12;94913.22;4965385;28;20486;-65
2023/07/05 05:18:30;;;;;;;17.60;13.57;;;23.10;99.90;;;23.75;68.68;94916.66;4965392;28;20459;-65
2023/07/05 05:20:57;;;;;;;27.03;13.27;;;23.20;99.90;;;23.84;69.08;94924.44;4965389;28;20471;-63
2023/07/05 05:23:24;;;;;;;19.10;12.70;;;23.20;99.90;;;23.91;67.92;94915.31;4963594;28;20455;-65
2023/07/05 05:25:52;;;;;;;22.97;13.33;;;23.30;99.90;;;24.00;68.91;94915.84;4965029;28;20581;-66
2023/07/05 05:28:19;;;;;;;22.87;13.97;;;23.40;99.90;;;24.10;68.53;94912.63;4962386;28;20451;-66
2023/07/05 05:30:48;;;;;;;22.77;13.97;;;23.50;99.90;;;24.25;68.15;94910.41;4964556;28;20854;-66
2023/07/05 05:33:16;;;;;;;23.80;14.00;;;23.60;99.90;;;24.36;67.50;94910.72;4964599;28;20455;-66
2023/07/05 05:35:47;;;;;;;17.10;13.10;;;23.70;99.90;;;24.50;66.66;94904.09;4961248;28;20999;-63
2023/07/05 05:38:15;;;;;;;15.60;12.40;;;23.80;99.90;;;24.61;66.97;94908.75;4964412;28;20455;-63
2023/07/05 05:40:42;;;;;;;19.07;14.20;;;23.90;99.90;;;24.73;66.50;94908.00;4964436;28;20474;-65
2023/07/05 05:43:10;;;;;;;17.80;14.20;;;24.10;99.90;;;24.84;66.03;94913.41;4964653;28;20468;-62
2023/07/05 05:45:37;;;;;;;15.60;12.50;;;24.20;99.90;;;24.99;65.99;94907.63;4964466;28;21070;-65
2023/07/05 05:48:07;;;;;;;24.60;13.67;;;24.30;99.90;;;25.14;65.88;94912.56;4963846;28;20455;-66
2023/07/05 05:50:35;;;;;;;21.93;14.00;;;24.40;99.90;;;25.31;65.31;94912.75;4964692;28;20467;-65
2023/07/05 05:53:03;;;;;;;15.83;13.23;;;24.60;99.90;;;25.44;64.29;94910.91;4964175;28;20485;-64
2023/07/05 05:55:30;;;;;;;19.13;13.47;;;24.70;99.90;;;25.57;63.85;94913.41;4960940;28;20555;-66
2023/07/05 05:57:57;;;;;;;20.20;13.30;;;24.90;99.90;;;25.70;63.63;94904.25;4965097;28;20459;-66
2023/07/05 06:00:25;;;;;;;23.33;13.07;;;25.00;99.90;;;25.84;62.91;94915.63;4965094;28;20486;-65
2023/07/05 06:02:53;;;;;;;28.33;14.17;;;25.10;99.90;;;25.95;62.70;94906.75;4961919;28;20501;-63
2023/07/05 06:05:21;;;;;;;24.00;12.17;;;25.30;99.90;;;26.07;62.49;94899.50;4960954;28;21036;-65
2023/07/05 06:07:49;;;;;;;15.77;13.03;;;25.40;99.90;;;26.19;62.23;94907.56;4965007;28;20498;-64
2023/07/05 06:10:16;;;;;;;21.27;13.30;;;25.50;99.90;;;26.31;61.94;94902.16;4964501;28;20471;-63
2023/07/05 06:12:44;;;;;;;17.03;12.33;;;25.60;99.90;;;26.41;61.72;94904.22;4965559;28;20813;-66
2023/07/05 06:15:12;;;;;;;21.37;13.47;;;25.70;99.90;;;26.53;61.32;94898.81;4971379;28;20486;-66
2023/07/05 06:17:40;;;;;;;19.63;13.60;;;25.80;99.90;;;26.65;60.72;94900.44;4968818;28;20455;-64
2023/07/05 06:20:10;;;;;;;15.83;14.07;;;25.90;99.90;;;26.77;59.75;94904.97;4962455;28;20495;-64
2023/07/05 06:22:38;;;;;;;30.03;12.60;;;26.10;99.90;;;26.89;60.11;94899.53;4964442;28;20447;-65
2023/07/05 06:25:07;;;;;;;19.87;12.80;;;26.20;99.90;;;27.00;60.13;94904.88;4964684;28;20479;-64
2023/07/05 06:27:34;;;;;;;24.80;14.00;;;26.30;99.90;;;27.15;59.82;94901.63;4964403;28;20499;-64
2023/07/05 06:30:01;;;;;;;17.97;13.47;;;26.40;99.90;;;27.31;59.82;94901.88;4964443;28;20482;-66
2023/07/05 06:32:29;;;;;;;22.40;13.43;;;26.60;99.90;;;27.45;59.36;94892.47;4963548;28;20459;-65
2023/07/05 06:34:56;;;;;;;15.20;12.23;;;26.70;99.90;;;27.59;58.79;94892.13;4963682;28;20794;-65
2023/07/05 06:37:24;;;;;;;18.40;13.93;;;26.80;99.90;;;27.72;58.38;94889.91;4964117;28;20455;-63
2023/07/05 06:39:52;;;;;;;21.70;12.70;;;27.00;99.70;;;27.89;57.73;94892.56;4964366;28;20576;-65
2023/07/05 06:42:20;;;;;;;21.30;12.90;;;27.10;99.80;;;28.05;57.86;94888.22;4962099;28;20452;-64
2023/07/05 06:44:47;;;;;;;24.60;13.57;;;27.30;99.70;;;28.17;56.89;94887.31;4965360;28;20475;-64
2023/07/05 06:47:16;;;;;;;20.40;12.60;;;27.40;99.10;;;28.25;57.38;94890.41;4961928;28;21156;-64
2023/07/05 06:49:43;;;;;;;17.70;13.20;;;27.50;98.80;;;28.37;57.25;94886.78;4961164;28;20517;-63
2023/07/05 06:52:10;;;;;;;16.70;12.50;;;27.60;98.80;;;28.51;56.49;94885.31;4964246;28;20458;-65
2023/07/05 06:54:38;;;;;;;16.60;12.83;;;27.70;98.60;;;28.68;56.26;94881.75;4964188;28;20470;-72
2023/07/05 06:57:07;;;;;;;16.93;14.17;;;27.90;98.50;;;28.83;56.53;94868.41;4964218;28;20519;-65
2023/07/05 06:59:35;;;;;;;15.20;11.80;;;28.00;97.90;;;28.94;56.09;94878.25;4965041;28;20536;-66
2023/07/05 07:02:02;;;;;;;27.43;13.53;;;28.20;97.80;;;29.06;55.95;94875.38;4962027;28;20402;-64
2023/07/05 07:04:29;;;;;;;15.23;12.50;;;28.30;97.50;;;29.14;54.73;94874.09;4962990;28;20535;-64
2023/07/05 07:06:57;;;;;;;25.30;12.87;;;28.40;97.20;;;29.18;54.56;94877.94;4966321;28;20490;-63
2023/07/05 07:09:24;;;;;;;17.53;12.70;;;28.50;96.90;;;29.27;54.87;94881.03;4967996;28;20223;-63
2023/07/05 07:11:51;;;;;;;19.50;12.30;;;28.50;96.70;;;29.41;54.23;94873.28;4971141;28;20469;-63
2023/07/05 07:14:20;;;;;;;23.23;13.97;;;28.60;96.60;;;29.56;53.91;94876.13;4967774;28;20224;-67
2023/07/05 07:16:48;;;;;;;18.23;13.50;;;28.80;96.40;;;29.72;53.44;94879.75;4967336;28;20203;-68
2023/07/05 07:19:15;;;;;;;16.53;11.90;;;29.00;95.90;;;29.81;53.85;94877.41;4967336;28;20231;-66
2023/07/05 07:21:43;;;;;;;13.47;11.00;;;29.00;95.60;;;29.91;53.15;94882.88;4963375;28;20200;-64
2023/07/05 07:24:10;;;;;;;14.90;11.40;;;29.10;95.00;;;29.99;52.61;94871.56;4966763;28;20316;-64
2023/07/05 07:26:38;;;;;;;14.57;11.40;;;29.20;94.60;;;30.06;52.77;94862.38;4967438;28;20242;-66
2023/07/05 07:29:08;;;;;;;16.47;11.73;;;29.30;94.30;;;30.11;51.80;94860.50;4966914;28;20219;-62
2023/07/05 07:31:37;;;;;;;17.03;10.50;;;29.40;93.90;;;30.19;51.86;94862.72;4967150;28;20617;-66
2023/07/05 07:34:05;;;;;;;12.13;10.87;;;29.40;93.60;;;30.28;50.96;94863.03;4965805;28;20204;-63
2023/07/05 07:36:33;;;;;;;11.73;10.50;;;29.50;93.30;;;30.35;50.50;94858.19;4966577;28;20203;-64
2023/07/05 07:39:00;;;;;;;22.70;12.20;;;29.60;92.80;;;30.49;50.47;94863.13;4968649;28;20284;-65
2023/07/05 07:41:29;;;;;;;12.70;10.00;;;29.70;92.60;;;30.57;50.44;94857.22;4967077;28;20208;-65
2023/07/05 07:43:59;;;;;;;12.20;10.47;;;29.80;92.40;;;30.63;50.06;94861.56;4966765;28;20199;-65
2023/07/05 07:46:28;;;;;;;13.50;11.80;;;29.90;92.40;;;30.70;50.02;94853.97;4963176;28;20199;-65
2023/07/05 07:48:58;;;;;;;19.47;11.13;;;30.00;91.60;;;30.72;49.89;94862.69;4966554;28;20208;-64
2023/07/05 07:51:27;;;;;;;15.20;10.40;;;30.00;91.20;;;30.75;49.61;94859.44;4966875;28;20211;-66
2023/07/05 07:53:54;;;;;;;25.30;11.63;;;30.00;91.20;;;30.76;47.34;94860.25;4976663;28;20210;-66
2023/07/05 07:56:23;;;;;;;19.13;11.60;;;30.00;88.70;;;30.64;47.96;94857.75;4960121;28;20204;-67
2023/07/05 07:58:52;;;;;;;15.50;10.27;;;29.90;88.30;;;30.57;49.60;94862.66;4959939;28;20741;-64
2023/07/05 08:01:23;;;;;;;19.20;10.63;;;29.90;90.70;;;30.57;49.31;94857.22;4961547;28;20211;-69
2023/07/05 08:03:50;;;;;;;21.33;11.37;;;29.90;90.10;;;30.63;49.06;94853.44;4967886;28;20724;-64
2023/07/05 08:06:19;;;;;;;16.73;10.60;;;29.90;90.10;;;30.86;47.54;94863.00;4961059;28;20207;-67
2023/07/05 08:08:46;;;;;;;13.13;11.00;;;30.10;88.00;;;31.03;46.96;94853.81;4972398;28;20211;-63
2023/07/05 08:11:14;;;;;;;10.57;9.68;;;30.30;86.90;;;31.20;47.37;94853.56;4973282;28;20208;-62
2023/07/05 08:13:44;;;;;;;17.45;10.27;;;30.40;87.70;;;31.28;46.70;94861.19;4984367;28;20208;-64
2023/07/05 08:16:11;;;;;;;14.90;9.45;;;30.60;85.50;;;31.39;47.57;94862.03;4978321;28;20204;-64
2023/07/05 08:18:38;;;;;;;9.85;8.70;;;30.60;87.30;;;31.58;47.58;94859.59;4966197;28;20631;-67
2023/07/05 08:21:05;;;;;;;19.38;9.70;;;30.80;86.60;;;31.76;46.65;94850.03;4978055;28;20227;-65
2023/07/05 08:23:34;;;;;;;9.90;9.00;;;31.00;85.10;;;31.95;46.76;94853.03;4965641;28;20199;-68
2023/07/05 08:26:01;;;;;;;11.40;9.68;;;31.20;85.10;;;32.15;46.45;94854.91;4978506;28;20223;-70
2023/07/05 08:28:29;;;;;;;10.15;8.98;;;31.30;84.50;;;32.31;45.78;94855.66;4968612;28;20242;-63
2023/07/05 08:30:57;;;;;;;12.93;10.10;;;31.50;83.80;;;32.35;45.87;94849.38;4962305;28;20230;-66
2023/07/05 08:33:26;;;;;;;11.07;9.75;;;31.60;82.80;;;32.41;45.52;94852.09;4958128;28;20258;-64
2023/07/05 08:36:07;;;;;;;19.38;13.07;;;31.70;82.30;;;32.49;45.52;94854.25;4961639;28;20223;-64
2023/07/05 08:38:38;;;;;;;12.95;9.35;;;31.70;81.80;;;32.59;45.29;94853.38;4960099;28;20207;-68
2023/07/05 08:41:16;;;;;;;12.60;9.38;;;31.80;80.20;;;32.60;44.38;94853.09;4982830;28;20230;-68
2023/07/05 08:43:47;;;;;;;12.75;9.40;;;31.90;79.70;;;32.62;44.87;94833.75;4967805;28;20596;-68
2023/07/05 08:46:15;;;;;;;12.95;8.85;;;31.90;80.40;;;32.69;44.82;94839.75;4971558;28;20196;-62
2023/07/05 08:48:42;;;;;;;12.00;9.30;;;31.90;80.00;;;32.75;44.66;94846.81;4966033;28;20246;-63
2023/07/05 08:51:10;;;;;;;11.15;9.95;;;32.00;79.20;;;32.80;44.63;94841.31;4991635;28;20652;-62
2023/07/05 08:53:47;;;;;;;9.68;8.75;;;32.10;79.00;;;32.88;44.56;94846.16;4960076;28;20246;-63
2023/07/05 08:56:18;;;;;;;11.70;9.57;;;32.10;79.00;;;32.93;44.65;94836.34;4985019;28;20210;-62
2023/07/05 08:58:49;;;;;;;15.15;9.18;;;32.20;78.80;;;33.05;44.67;94836.81;4973057;28;20746;-69
2023/07/05 09:01:19;;;;;;;12.35;8.98;;;32.30;77.80;;;33.09;43.14;94826.94;4977318;28;20652;-63
2023/07/05 09:03:46;;;;;;;16.40;10.43;;;32.30;76.10;;;33.05;43.33;94834.06;4968529;28;20200;-62
2023/07/05 09:06:21;;;;;;;9.65;8.75;;;32.30;76.10;;;32.83;43.57;94824.41;4957711;28;20261;-63
2023/07/05 09:09:20;;;;;;;13.15;9.57;;;32.10;75.40;;;32.66;44.18;94818.53;4963581;28;20280;-63
2023/07/05 09:12:02;;;;;;;12.02;8.10;;;32.00;76.60;;;32.62;44.57;94820.13;4960447;28;20197;-63
2023/07/05 09:14:40;;;;;;;13.20;9.13;;;31.90;77.00;;;32.52;44.78;94819.09;4961166;28;20716;-66
2023/07/05 09:17:15;;;;;;;9.25;8.40;;;31.80;77.40;;;32.33;44.04;94804.47;4964251;28;20300;-68
2023/07/05 09:19:49;;;;;;;14.23;10.00;;;31.70;76.30;;;32.09;44.59;94807.00;4961393;28;20288;-67
2023/07/05 09:22:20;;;;;;;9.25;8.35;;;31.40;77.10;;;31.87;45.25;94808.16;4961709;28;20192;-70
2023/07/05 09:24:49;;;;;;;17.50;9.18;;;31.20;78.30;;;31.82;45.89;94805.41;4962260;28;20293;-64
2023/07/05 09:27:18;;;;;;;14.98;8.82;;;31.10;78.70;;;31.76;45.78;94798.38;4964217;28;20231;-71
2023/07/05 09:29:50;;;;;;;11.45;9.10;;;31.00;78.50;;;31.78;46.71;94785.31;4964184;28;20811;-62
2023/07/05 09:32:20;;;;;;;10.73;9.63;;;31.10;80.90;;;31.80;46.98;94789.38;4964431;28;20664;-69
2023/07/05 09:34:50;;;;;;;11.68;8.80;;;31.10;80.80;;;31.80;46.30;94788.56;4973467;28;20234;-69
2023/07/05 09:37:19;;;;;;;12.80;8.48;;;31.00;80.20;;;31.74;46.01;94786.97;4966855;28;20216;-63
2023/07/05 09:40:06;;;;;;;17.02;8.35;;;31.00;79.50;;;31.69;46.30;94792.41;4958601;28;20727;-67
2023/07/05 09:42:38;;;;;;;14.30;9.85;;;31.00;79.50;;;31.61;47.65;94789.16;4965442;28;20231;-69
2023/07/05 09:45:06;;;;;;;9.82;8.93;;;30.90;81.40;;;31.61;46.50;94793.78;4959175;28;20221;-64
2023/07/05 09:47:33;;;;;;;12.02;9.68;;;30.90;79.30;;;31.56;47.50;94791.88;4962800;28;20231;-68
2023/07/05 09:50:01;;;;;;;12.70;9.10;;;30.90;81.10;;;31.49;47.20;94799.47;4963270;28;20289;-64
2023/07/05 09:52:28;;;;;;;14.40;9.10;;;30.80;80.70;;;31.41;47.43;94792.69;4959261;28;20212;-69
2023/07/05 09:55:01;;;;;;;11.52;8.95;;;30.70;81.80;;;31.30;48.31;94807.38;4968201;28;20227;-69
2023/07/05 09:57:28;;;;;;;11.10;9.52;;;30.60;82.10;;;31.21;46.64;94790.78;4966064;28;20204;-63
2023/07/05 09:59:55;;;;;;;15.90;11.13;;;30.50;80.00;;;31.14;46.58;94794.88;4965085;28;20786;-68
2023/07/05 10:02:26;;;;;;;9.65;8.73;;;30.50;80.80;;;31.10;47.46;94792.69;4960881;28;20222;-69
2023/07/05 10:04:56;;;;;;;13.70;9.77;;;30.40;81.70;;;31.15;48.13;94791.06;4963022;28;20287;-64
2023/07/05 10:07:29;;;;;;;11.85;9.80;;;30.40;83.00;;;31.17;47.99;94794.31;4962366;28;20223;-64
2023/07/05 10:10:01;;;;;;;12.93;9.27;;;30.50;82.60;;;31.18;48.08;94798.69;4964610;28;20231;-68
2023/07/05 10:12:33;;;;;;;13.38;10.50;;;30.50;83.60;;;31.20;49.27;94800.03;4962221;28;20252;-68
2023/07/05 10:15:01;;;;;;;69.95;11.85;;;30.50;83.80;;;31.17;48.61;94794.31;4964847;28;20235;-69
2023/07/05 10:17:41;;;;;;;17.40;9.05;;;30.50;83.40;;;31.19;47.56;94786.72;4961231;28;20215;-69
2023/07/05 10:20:19;;;;;;;11.95;9.63;;;30.50;82.00;;;31.17;47.88;94784.28;4960629;28;20285;-68